Nearby METAR Reports

 

KGSP - Greer/Spartansbg, South Carolina, USA
Distance from station: E 4mi, 6km
Updated: Sun, 17-Nov-2019 6:53am EST
Overcast
Overcast
 Wind from NNE
Wind: NNE 14 mph , 22 km/h
Temperature: 45°F , 7°C
Wind Chill: 39°F , 4°C
Dew Point: 28°F , -2°C
Humidity: 53%
Barometer: 30.10 inHg , 1019.3 hPa
Clouds: Overcast
Visibility: 10 miles , 16 km
Cloud details: Overcast 4700 ft
2019/11/17 11:53 KGSP 171153Z 02012KT 10SM OVC047 07/M02 A3010 RMK AO2 SLP191 T00671017 10072 20056 53003
KGMU - Greenville, South Carolina, USA
Distance from station: SW 5mi, 8km
Updated: Sun, 17-Nov-2019 6:53am EST
Overcast
Overcast
 Wind from NE
Wind: NE 15 mph , 24 km/h, Gust: 24 mph , 39 km/h
Temperature: 46°F , 8°C
Wind Chill: 40°F , 4°C
Dew Point: 30°F , -1°C
Humidity: 53%
Barometer: 30.08 inHg , 1018.6 hPa
Clouds: Overcast
Visibility: 10 miles , 16 km
Cloud details: Overcast 4200 ft
2019/11/17 11:53 KGMU 171153Z 04013G21KT 10SM OVC042 08/M01 A3008 RMK AO2 SLP187 T00781006 10078 20067 50002
 
KGYH - Greenville, South Carolina, USA
Distance from station: SSW 11mi, 18km
Updated: Sun, 17-Nov-2019 6:47am EST
Overcast
Overcast
 Wind from NNE
Wind: NNE 16 mph , 26 km/h, Gust: 22 mph , 35 km/h
Temperature: 45°F , 7°C
Wind Chill: 38°F , 3°C
Dew Point: 30°F , -1°C
Humidity: 57%
Barometer: 30.08 inHg , 1018.6 hPa
Clouds: Overcast
Visibility: 10 miles , 16 km
Cloud details: Overcast 4000 ft
2019/11/17 11:47 KGYH 171147Z 03014G19KT 10SM OVC040 07/M01 A3008
KSPA - Spartanburg, South Carolina, USA
Distance from station: E 20mi, 32km
Updated: Sun, 17-Nov-2019 6:55am EST
Overcast
Overcast
 Wind from NNE
Wind: NNE 14 mph , 22 km/h, Gust: 22 mph , 35 km/h
Temperature: 41°F , 5°C
Wind Chill: 33°F , 1°C
Dew Point: 30°F , -1°C
Humidity: 66%
Barometer: 30.10 inHg , 1019.3 hPa
Clouds: Overcast
Visibility: 10 miles , 16 km
Cloud details: Overcast 4600 ft
2019/11/17 11:55 KSPA 171155Z AUTO 03012G19KT 10SM OVC046 05/M01 A3010 RMK AO2
 
KLQK - Pickens, South Carolina, USA
Distance from station: WSW 24mi, 39km
Updated: Sun, 17-Nov-2019 6:55am EST
Overcast
Overcast
 Wind from E
Wind: E 5 mph , 7 km/h
Temperature: 45°F , 7°C
Wind Chill: 42°F , 6°C
Dew Point: 32°F , 0°C
Humidity: 61%
Barometer: 30.07 inHg , 1018.3 hPa
Clouds: Overcast
Visibility: 10 miles , 16 km
Cloud details: Overcast 4300 ft
2019/11/17 11:55 KLQK 171155Z AUTO 09004KT 10SM OVC043 07/00 A3007 RMK AO2 T00670002 10081 20067
KLUX - Laurens, South Carolina, USA
Distance from station: SE 33mi, 54km
Updated: Sun, 17-Nov-2019 6:55am EST
Overcast
Overcast
 Wind from NNE
Wind: NNE 15 mph , 24 km/h, Gust: 23 mph , 37 km/h
Temperature: 41°F , 5°C
Wind Chill: 33°F , 1°C
Dew Point: 32°F , 0°C
Humidity: 70%
Barometer: 30.08 inHg , 1018.6 hPa
Clouds: Overcast
Visibility: 10 miles , 16 km
Cloud details: Overcast 5000 ft
2019/11/17 11:55 KLUX 171155Z AUTO 02013G20KT 10SM OVC050 05/00 A3008 RMK AO2
 
KAND - Anderson, South Carolina, USA
Distance from station: SW 37mi, 59km
Updated: Sun, 17-Nov-2019 5:56am EST
Overcast
Overcast
 Wind from NE
Wind: NE 13 mph , 20 km/h
Temperature: 46°F , 8°C
Wind Chill: 40°F , 4°C
Dew Point: 30°F , -1°C
Humidity: 53%
Barometer: 30.08 inHg , 1018.6 hPa
Clouds: Overcast
Visibility: 10 miles , 16 km
Cloud details: Overcast 4000 ft
2019/11/17 10:56 KAND 171056Z AUTO 04011KT 10SM OVC040 08/M01 A3008 RMK AO2 SLP184 T00781006
KCEU - Clemson, South Carolina, USA
Distance from station: WSW 37mi, 60km
Updated: Sun, 17-Nov-2019 6:54am EST
Overcast
Overcast
 Wind from E
Wind: E 3 mph , 6 km/h
Temperature: 45°F , 7°C
Dew Point: 30°F , -1°C
Humidity: 57%
Barometer: 30.09 inHg , 1019 hPa
Clouds: Overcast
Visibility: 10 miles , 16 km
Cloud details: Overcast 3500 ft
2019/11/17 11:54 KCEU 171154Z AUTO 08003KT 10SM OVC035 07/M01 A3009 RMK AO2 SLP187 T00671011 10083 20067 53005
 
KAVL - Asheville, North Carolina, USA
Distance from station: NNW 40mi, 64km
Updated: Sun, 17-Nov-2019 6:54am EST
Overcast
Overcast
 Wind from calm
Wind: Calm
Temperature: 39°F , 4°C
Dew Point: 28°F , -2°C
Humidity: 65%
Barometer: 30.10 inHg , 1019.3 hPa
Clouds: Overcast
Visibility: 10 miles , 16 km
Cloud details: Overcast 2000 ft
2019/11/17 11:54 KAVL 171154Z 00000KT 10SM OVC020 04/M02 A3010 RMK AO2 SLP190 T00441017 10
KFQD - Rutherfordton, North Carolina, USA
Distance from station: NNE 41mi, 66km
Updated: Sun, 17-Nov-2019 6:55am EST
Overcast
Overcast
 Wind from NNE
Wind: NNE 7 mph , 11 km/h
Temperature: 41°F , 5°C
Wind Chill: 36°F , 2°C
Dew Point: 30°F , -1°C
Humidity: 66%
Barometer: 30.13 inHg , 1020.3 hPa
Clouds: Overcast
Visibility: 10 miles , 16 km
Cloud details: Overcast 3800 ft
2019/11/17 11:55 KFQD 171155Z AUTO 02006KT 10SM OVC038 05/M01 A3013 RMK AO2
 
KGRD - Greenwood, South Carolina, USA
Distance from station: S 45mi, 73km
Updated: Sun, 17-Nov-2019 5:56am EST
Overcast
Overcast
 Wind from NNE
Wind: NNE 14 mph , 22 km/h, Gust: 21 mph , 33 km/h
Temperature: 43°F , 6°C
Wind Chill: 36°F , 2°C
Dew Point: 30°F , -1°C
Humidity: 61%
Barometer: 30.08 inHg , 1018.6 hPa
Clouds: Overcast
Visibility: 10 miles , 16 km
Cloud details: Overcast 5500 ft
2019/11/17 10:56 KGRD 171056Z AUTO 02012G18KT 10SM OVC055 06/M01 A3008 RMK AO2 SLP187 T00561006
KEHO - Shelby Muni, North Carolina, USA
Distance from station: ENE 46mi, 74km
Updated: Sun, 17-Nov-2019 6:55am EST
Overcast
Overcast
 Wind from NNE
Wind: NNE 10 mph , 17 km/h
Temperature: 41°F , 5°C
Wind Chill: 35°F , 2°C
Dew Point: 32°F , 0°C
Humidity: 70%
Barometer: 30.12 inHg , 1020 hPa
Clouds: Overcast
Visibility: 10 miles , 16 km
Cloud details: Overcast 4800 ft
2019/11/17 11:55 KEHO 171155Z AUTO 03009KT 10SM OVC048 05/00 A3012 RMK AO2 T00501005 10057 20042